Time;durP1;ratioP1;P1;durP2;ratioP2;P2;SDS_P1;SDS_P2;PMS_P1;PMS_P2;Temp;Humidity;BMP_temperature;BMP_pressure;BME280_temperature;BME280_humidity;BME280_pressure;Samples;Min_cycle;Max_cycle;Signal;HPM_P1;HPM_P2
2022/05/30 00:01:59;;;;;;;;;;;14.00;90.70;;;11.64;80.67;100231.13;6125793;23;19928;-79
2022/05/30 00:04:26;;;;;;;;;;;14.00;90.70;;;11.63;80.32;100232.19;6152167;23;20664;-79
2022/05/30 00:06:54;;;;;;;;;;;14.00;90.60;;;11.63;80.11;100225.88;6152182;23;20394;-79
2022/05/30 00:09:21;;;;;;;;;;;14.00;90.70;;;11.62;79.71;100230.50;6151332;23;19928;-79
2022/05/30 00:11:50;;;;;;;;;;;14.00;90.70;;;11.60;80.61;100223.56;6152012;23;19955;-79
2022/05/30 00:14:17;;;;;;;;;;;14.00;90.70;;;11.60;79.84;100226.28;6125734;23;20339;-79
2022/05/30 00:16:44;;;;;;;;;;;13.90;90.60;;;11.59;79.75;100219.16;6152223;23;19920;-79
2022/05/30 00:19:11;;;;;;;;;;;13.90;90.70;;;11.58;80.78;100220.22;6151024;23;20015;-79
2022/05/30 00:21:38;;;;;;;;;;;14.00;90.80;;;11.58;80.92;100212.03;6152154;23;19930;-79
2022/05/30 00:24:07;;;;;;;;;;;14.00;90.80;;;11.58;80.00;100214.75;6125794;23;19920;-79
2022/05/30 00:26:34;;;;;;;;;;;13.90;90.70;;;11.55;80.35;100214.09;6152208;23;19928;-79
2022/05/30 00:29:01;;;;;;;;;;;13.90;90.80;;;11.55;80.60;100214.09;6150770;23;19927;-79
2022/05/30 00:31:29;;;;;;;;;;;13.90;90.80;;;11.55;81.13;100211.34;6151934;23;19952;-79
2022/05/30 00:33:56;;;;;;;;;;;13.90;91.00;;;11.55;81.15;100210.53;6152388;23;20007;-79
2022/05/30 00:36:23;;;;;;;;;;;13.90;90.90;;;11.54;81.95;100214.31;6154032;23;19952;-79
2022/05/30 00:38:50;;;;;;;;;;;13.90;91.20;;;11.55;81.59;100207.78;6126716;23;19924;-79
2022/05/30 00:41:19;;;;;;;;;;;13.90;91.10;;;11.52;82.07;100210.94;6127827;23;19916;-79
2022/05/30 00:43:46;;;;;;;;;;;13.90;91.20;;;11.49;82.82;100205.88;6153989;23;19924;-78
2022/05/30 00:46:15;;;;;;;;;;;13.90;91.50;;;11.47;83.14;100213.41;6127599;23;19928;-79
2022/05/30 00:48:45;;;;;;;;;;;13.90;91.60;;;11.49;83.29;100208.59;6126707;23;19917;-79
2022/05/30 00:51:15;;;;;;;;;;;13.90;91.60;;;11.47;83.17;100206.06;6153739;23;19927;-79
2022/05/30 00:53:43;;;;;;;;;;;13.90;91.70;;;11.45;83.23;100207.31;6153753;23;19999;-79
2022/05/30 00:56:11;;;;;;;;;;;13.90;91.80;;;11.43;82.82;100204.78;6126581;23;19967;-79
2022/05/30 00:58:45;;;;;;;;;;;13.90;91.70;;;11.44;82.17;100202.88;6126121;23;19916;-79
2022/05/30 01:01:13;;;;;;;;;;;13.80;91.60;;;11.45;82.34;100204.59;6126992;23;19928;-79
2022/05/30 01:06:32;;;;;;;;;;;13.80;91.70;;;11.41;83.06;100193.25;6153698;23;20058;-79
2022/05/30 01:09:01;;;;;;;;;;;13.80;91.80;;;11.39;83.03;100199.94;6126219;23;20005;-79
2022/05/30 01:11:46;;;;;;;;;;;13.80;91.80;;;11.38;82.44;100195.50;6127490;23;19954;-79
2022/05/30 01:14:15;;;;;;;;;;;13.80;91.70;;;11.39;83.16;100200.78;6153288;23;19951;-79
2022/05/30 01:16:42;;;;;;;;;;;13.80;91.80;;;11.37;83.44;100196.56;6127123;23;19921;-79
2022/05/30 01:19:12;;;;;;;;;;;13.80;92.00;;;11.35;83.75;100194.88;6150712;23;19920;-79
2022/05/30 01:21:52;;;;;;;;;;;13.80;92.00;;;11.34;83.80;100198.63;6153328;23;20339;-79
2022/05/30 01:24:30;;;;;;;;;;;13.80;92.00;;;11.33;83.29;100190.66;6126851;23;20340;-79
2022/05/30 01:27:30;;;;;;;;;;;13.80;92.10;;;11.31;84.60;100198.19;6153485;23;19947;-79
2022/05/30 01:30:02;;;;;;;;;;;13.80;92.30;;;11.31;84.86;100199.03;6126270;23;20263;-79
2022/05/30 01:32:29;;;;;;;;;;;13.80;92.50;;;11.28;84.69;100184.97;6127155;23;19951;-79
2022/05/30 01:34:56;;;;;;;;;;;13.80;92.40;;;11.26;84.02;100193.31;6127020;23;19924;-79
2022/05/30 01:37:32;;;;;;;;;;;13.80;92.30;;;11.27;84.59;100194.16;6126860;23;19983;-79
2022/05/30 01:39:59;;;;;;;;;;;13.70;92.50;;;11.25;83.59;100191.66;6126050;23;19928;-79
2022/05/30 01:42:26;;;;;;;;;;;13.70;92.40;;;11.23;84.47;100190.16;6126896;23;19928;-79
2022/05/30 01:44:54;;;;;;;;;;;13.70;92.60;;;11.24;84.47;100192.69;6126949;23;19923;-79
2022/05/30 01:47:25;;;;;;;;;;;13.70;92.80;;;11.24;84.83;100181.78;6126872;23;19916;-79
2022/05/30 01:49:52;;;;;;;;;;;13.70;92.80;;;11.22;85.05;100183.03;6126107;23;19920;-79
2022/05/30 01:52:25;;;;;;;;;;;13.70;92.90;;;11.20;85.44;100188.69;6126952;23;19927;-79
2022/05/30 01:54:54;;;;;;;;;;;13.70;92.90;;;11.20;86.09;100180.50;6126599;23;20592;-79
2022/05/30 01:57:39;;;;;;;;;;;13.70;93.10;;;11.18;86.76;100181.75;6152633;23;19920;-79
2022/05/30 02:00:28;;;;;;;;;;;13.70;93.30;;;11.19;86.53;100177.97;6152380;23;19917;-79
2022/05/30 02:02:57;;;;;;;;;;;13.70;93.50;;;11.17;87.10;100180.06;6126146;23;20203;-79
2022/05/30 02:05:24;;;;;;;;;;;13.70;93.80;;;11.15;87.88;100177.50;6125797;23;19924;-79
2022/05/30 02:07:51;;;;;;;;;;;13.60;93.70;;;11.14;88.41;100176.69;6125764;23;19923;-79
2022/05/30 02:10:23;;;;;;;;;;;13.60;93.90;;;11.13;88.61;100179.59;6126774;23;19928;-79
2022/05/30 02:12:51;;;;;;;;;;;13.60;94.10;;;11.12;88.56;100173.31;6126636;23;19957;-79
2022/05/30 02:18:21;;;;;;;;;;;13.60;94.30;;;11.10;88.95;100166.38;6125539;23;19920;-79
2022/05/30 02:20:49;;;;;;;;;;;13.60;94.50;;;11.09;89.01;100175.59;6152812;23;20330;-78
2022/05/30 02:23:17;;;;;;;;;;;13.60;94.60;;;11.07;88.55;100175.78;6126541;23;19928;-78
2022/05/30 02:25:44;;;;;;;;;;;13.60;94.60;;;11.08;88.68;100177.47;6152999;23;19920;-78
2022/05/30 02:28:13;;;;;;;;;;;13.50;94.70;;;11.07;88.44;100167.59;6125653;23;19920;-79
2022/05/30 02:30:40;;;;;;;;;;;13.50;94.60;;;11.07;88.48;100170.34;6126324;23;20682;-79
2022/05/30 02:38:38;;;;;;;;;;;13.50;94.90;;;11.05;88.27;100166.13;6124704;23;19921;-79
2022/05/30 02:41:24;;;;;;;;;;;13.50;94.70;;;11.04;88.13;100169.88;6152649;23;19998;-79
2022/05/30 02:44:04;;;;;;;;;;;13.40;94.60;;;11.04;87.53;100165.28;6125769;23;19921;-79
2022/05/30 02:46:31;;;;;;;;;;;13.40;94.60;;;11.04;87.58;100169.88;6125884;23;20002;-79
2022/05/30 02:48:58;;;;;;;;;;;13.50;94.70;;;11.01;87.44;100167.56;6125224;23;19975;-79
2022/05/30 02:51:27;;;;;;;;;;;13.40;94.50;;;10.99;87.88;100167.75;6125793;23;19920;-79
2022/05/30 02:53:55;;;;;;;;;;;13.40;94.60;;;11.00;85.94;100174.03;6125988;23;19963;-79
2022/05/30 02:56:41;;;;;;;;;;;13.40;94.20;;;10.96;86.25;100168.97;6151491;23;19928;-79
2022/05/30 02:59:09;;;;;;;;;;;13.40;94.20;;;10.96;85.86;100171.69;6150886;23;20344;-79
2022/05/30 03:01:42;;;;;;;;;;;13.40;94.00;;;10.94;86.59;100176.50;6126108;23;19944;-79
2022/05/30 03:04:09;;;;;;;;;;;13.40;94.20;;;10.96;85.50;100163.53;6121273;23;19928;-74
2022/05/30 03:06:38;;;;;;;;;;;13.40;94.00;;;10.92;84.81;100172.28;6122971;23;19927;-74
2022/05/30 03:09:06;;;;;;;;;;;13.30;93.70;;;10.90;85.83;100175.22;6119875;23;19954;-75
2022/05/30 03:11:54;;;;;;;;;;;13.30;94.00;;;10.90;85.29;100177.94;6121598;23;19927;-75
2022/05/30 03:14:21;;;;;;;;;;;13.30;94.00;;;10.91;85.09;100181.50;6096219;23;19968;-75
2022/05/30 03:16:48;;;;;;;;;;;13.30;93.90;;;10.91;85.20;100176.91;6096164;23;19927;-75
2022/05/30 03:19:16;;;;;;;;;;;13.30;93.70;;;10.88;85.07;100185.44;6095138;23;19921;-75
2022/05/30 03:21:44;;;;;;;;;;;13.30;93.90;;;10.88;85.78;100184.63;6122494;23;19958;-75
2022/05/30 03:24:11;;;;;;;;;;;13.30;93.90;;;10.88;85.28;100180.00;6096218;23;20293;-75
2022/05/30 03:26:39;;;;;;;;;;;13.30;93.90;;;10.88;85.08;100182.72;6122787;23;19940;-75
2022/05/30 03:29:07;;;;;;;;;;;13.30;93.70;;;10.87;84.69;100186.50;6121299;23;20387;-75
2022/05/30 03:31:36;;;;;;;;;;;13.20;93.50;;;10.85;85.36;100180.41;6096483;23;19995;-75
2022/05/30 03:34:03;;;;;;;;;;;13.20;93.70;;;10.86;84.95;100183.97;6095971;23;19921;-75
2022/05/30 03:36:33;;;;;;;;;;;13.20;93.70;;;10.84;85.92;100186.03;6095825;23;19949;-74
2022/05/30 03:39:16;;;;;;;;;;;13.20;93.90;;;10.83;86.31;100190.63;6121496;23;20214;-75
2022/05/30 03:42:04;;;;;;;;;;;13.20;94.00;;;10.81;86.33;100198.16;6120778;23;19928;-76
2022/05/30 03:44:45;;;;;;;;;;;13.20;94.00;;;10.80;86.86;100195.66;6096593;23;19964;-71
2022/05/30 03:47:12;;;;;;;;;;;13.20;94.10;;;10.79;86.63;100193.94;6122327;23;19975;-72
2022/05/30 03:49:39;;;;;;;;;;;13.20;94.10;;;10.79;86.87;100188.50;6095064;23;19920;-72
2022/05/30 03:52:08;;;;;;;;;;;13.20;94.20;;;10.80;86.85;100196.47;6095798;23;19921;-73
2022/05/30 03:54:36;;;;;;;;;;;13.20;94.30;;;10.77;87.10;100196.84;6095927;23;19976;-72
2022/05/30 03:57:05;;;;;;;;;;;13.20;94.40;;;10.76;87.37;100197.91;6096561;23;19959;-73
2022/05/30 03:59:32;;;;;;;;;;;13.20;94.40;;;10.75;87.33;100199.75;6121788;23;20371;-72
2022/05/30 04:01:59;;;;;;;;;;;13.20;94.50;;;10.76;87.87;100200.63;6096736;23;20667;-72
2022/05/30 04:04:27;;;;;;;;;;;13.20;94.60;;;10.75;87.92;100196.22;6122550;23;19975;-72
2022/05/30 04:06:54;;;;;;;;;;;13.20;94.70;;;10.75;88.32;100199.75;6096466;23;19920;-72
2022/05/30 04:09:22;;;;;;;;;;;13.20;94.80;;;10.76;87.57;100200.63;6119817;23;19917;-72
2022/05/30 04:11:51;;;;;;;;;;;13.20;94.70;;;10.75;88.33;100191.59;6122719;23;19928;-72
2022/05/30 04:14:54;;;;;;;;;;;13.20;94.70;;;10.75;88.47;100193.47;6120799;23;19992;-72
2022/05/30 04:17:25;;;;;;;;;;;13.20;94.80;;;10.74;88.43;100194.53;6122528;23;20240;-72
2022/05/30 04:19:53;;;;;;;;;;;13.20;94.80;;;10.72;88.27;100189.28;6095363;23;19921;-72
2022/05/30 04:22:22;;;;;;;;;;;13.20;94.80;;;10.74;88.67;100192.66;6096254;23;19975;-72
2022/05/30 04:25:09;;;;;;;;;;;13.20;94.90;;;10.76;88.24;100189.75;6122387;23;19924;-72
2022/05/30 04:27:37;;;;;;;;;;;13.20;94.90;;;10.76;88.17;100196.03;6095815;23;19921;-72
2022/05/30 04:30:06;;;;;;;;;;;13.20;94.80;;;10.76;88.35;100197.91;6122106;23;20008;-72
2022/05/30 04:32:37;;;;;;;;;;;13.20;94.80;;;10.76;89.08;100200.63;6096118;23;19973;-71
2022/05/30 04:35:06;;;;;;;;;;;13.20;95.00;;;10.78;88.09;100206.72;6120567;23;19927;-72
2022/05/30 04:37:34;;;;;;;;;;;13.20;94.70;;;10.78;87.52;100201.28;6096110;23;19924;-72
2022/05/30 04:40:19;;;;;;;;;;;13.20;94.80;;;10.76;88.09;100206.06;6096189;23;19924;-72
2022/05/30 04:43:06;;;;;;;;;;;13.20;94.90;;;10.76;88.66;100206.06;6122403;23;19928;-72
2022/05/30 04:46:03;;;;;;;;;;;13.20;95.00;;;10.76;88.11;100206.06;6122119;23;20349;-71
2022/05/30 04:48:38;;;;;;;;;;;13.20;94.90;;;10.75;87.42;100210.66;6095462;23;19999;-72
2022/05/30 04:51:05;;;;;;;;;;;13.20;94.90;;;10.76;87.79;100216.97;6096350;23;19916;-72
2022/05/30 04:53:33;;;;;;;;;;;13.20;94.90;;;10.75;87.93;100216.09;6095244;23;19995;-72
2022/05/30 04:56:26;;;;;;;;;;;13.20;94.90;;;10.79;87.40;100210.28;6108251;23;20350;-71
2022/05/30 04:59:05;;;;;;;;;;;13.20;94.70;;;10.76;86.93;100223.25;6095095;23;20241;-73
2022/05/30 05:01:34;;;;;;;;;;;13.20;94.60;;;10.78;86.73;100220.34;6095888;23;19927;-73
2022/05/30 05:04:03;;;;;;;;;;;13.20;94.70;;;10.79;86.93;100216.56;6095556;23;19920;-74
2022/05/30 05:06:31;;;;;;;;;;;13.20;94.50;;;10.82;87.93;100215.34;6095865;23;19924;-74
2022/05/30 05:09:04;;;;;;;;;;;13.30;94.80;;;10.83;87.88;100212.41;6095237;23;20344;-74
2022/05/30 05:11:36;;;;;;;;;;;13.30;94.80;;;10.84;87.61;100219.56;6122076;23;19927;-74
2022/05/30 05:14:23;;;;;;;;;;;13.30;94.80;;;10.81;86.91;100214.47;6120635;23;19995;-74
2022/05/30 05:17:10;;;;;;;;;;;13.30;94.20;;;10.82;87.11;100218.06;6120827;23;19924;-74
2022/05/30 05:19:39;;;;;;;;;;;13.30;94.70;;;10.83;86.44;100217.84;6095007;23;20649;-75
2022/05/30 05:22:06;;;;;;;;;;;13.30;94.40;;;10.85;87.50;100225.81;6122141;23;19917;-74
2022/05/30 05:24:34;;;;;;;;;;;13.40;94.50;;;10.89;87.81;100222.53;6097714;23;19917;-76
2022/05/30 05:27:19;;;;;;;;;;;13.40;94.60;;;10.92;86.92;100222.13;6123679;23;19971;-74
2022/05/30 05:29:53;;;;;;;;;;;13.40;94.30;;;10.96;86.98;100223.44;6096358;23;19928;-73
2022/05/30 05:32:20;;;;;;;;;;;13.50;94.40;;;10.98;86.28;100225.13;6097704;23;19920;-73
2022/05/30 05:34:50;;;;;;;;;;;13.50;93.80;;;11.00;86.08;100223.06;6097486;23;20003;-73
2022/05/30 05:37:19;;;;;;;;;;;13.50;94.00;;;11.03;86.42;100223.50;6097393;23;19917;-73
2022/05/30 05:40:07;;;;;;;;;;;13.50;94.10;;;11.05;85.99;100235.03;6118735;23;19921;-73
2022/05/30 05:42:35;;;;;;;;;;;13.60;93.70;;;11.12;86.57;100235.13;6123388;23;19921;-73
2022/05/30 05:45:03;;;;;;;;;;;13.70;94.10;;;11.15;86.79;100235.53;6097361;23;20040;-73
2022/05/30 05:47:30;;;;;;;;;;;13.70;94.10;;;11.22;86.47;100227.44;6097097;23;19921;-73
2022/05/30 05:49:57;;;;;;;;;;;13.80;94.10;;;11.28;85.83;100236.72;6096842;23;19931;-73
2022/05/30 05:52:28;;;;;;;;;;;13.80;93.80;;;11.33;86.91;100237.81;6096944;23;19999;-73
2022/05/30 05:54:59;;;;;;;;;;;14.00;93.80;;;11.41;86.73;100236.00;6096546;23;19928;-73
2022/05/30 05:57:26;;;;;;;;;;;14.00;93.70;;;11.44;85.36;100233.72;6097091;23;19991;-73
2022/05/30 05:59:54;;;;;;;;;;;14.10;93.30;;;11.47;84.61;100241.50;6096359;23;19999;-73
2022/05/30 06:02:23;;;;;;;;;;;14.10;92.90;;;11.47;84.15;100243.38;6096205;23;20312;-74
2022/05/30 06:04:53;;;;;;;;;;;14.10;92.60;;;11.43;82.63;100247.53;6096913;23;19920;-73
2022/05/30 06:07:42;;;;;;;;;;;14.10;90.60;;;11.45;83.47;100242.75;6091097;23;19921;-73
2022/05/30 06:10:25;;;;;;;;;;;14.00;92.40;;;11.49;83.02;100244.84;6123279;23;19921;-73
2022/05/30 06:12:59;;;;;;;;;;;14.10;92.40;;;11.52;83.46;100243.63;6097228;23;19927;-77
2022/05/30 06:15:28;;;;;;;;;;;14.10;92.40;;;11.56;83.91;100247.66;6118050;23;20401;-75
2022/05/30 06:18:05;;;;;;;;;;;14.10;92.30;;;11.59;85.06;100251.84;6096059;23;20335;-73
2022/05/30 06:20:32;;;;;;;;;;;14.20;92.60;;;11.64;85.00;100249.38;6096565;23;19920;-73
2022/05/30 06:22:59;;;;;;;;;;;14.20;92.60;;;11.65;84.50;100251.91;6119681;23;19917;-73
2022/05/30 06:25:45;;;;;;;;;;;14.20;92.60;;;11.67;82.53;100255.28;6122872;23;19928;-73
2022/05/30 06:28:32;;;;;;;;;;;14.30;91.50;;;11.65;82.57;100249.19;6095602;23;19924;-73
2022/05/30 06:31:19;;;;;;;;;;;14.20;91.60;;;11.70;82.59;100252.16;6095744;23;19928;-73
2022/05/30 06:33:53;;;;;;;;;;;14.30;91.90;;;11.76;83.57;100249.69;6096440;23;19924;-72
2022/05/30 06:36:34;;;;;;;;;;;14.40;92.20;;;11.82;83.34;100249.75;6095567;23;19927;-72
2022/05/30 06:39:02;;;;;;;;;;;14.50;92.10;;;11.88;83.29;100242.63;6094740;23;19974;-72
2022/05/30 06:41:37;;;;;;;;;;;14.60;91.40;;;11.97;84.61;100246.91;6096335;23;19952;-72
2022/05/30 06:44:09;;;;;;;;;;;14.70;92.20;;;12.05;83.85;100244.03;6120658;23;19920;-72
2022/05/30 06:46:54;;;;;;;;;;;14.80;91.60;;;12.13;82.92;100248.47;6120955;23;20271;-72
2022/05/30 06:49:42;;;;;;;;;;;14.90;91.40;;;12.20;82.00;100248.50;6121486;23;19943;-72
2022/05/30 06:52:13;;;;;;;;;;;15.00;90.70;;;12.27;81.29;100252.13;6096143;23;19924;-72
2022/05/30 06:54:40;;;;;;;;;;;15.10;90.00;;;12.30;80.49;100252.56;6095311;23;19964;-72
2022/05/30 06:59:53;;;;;;;;;;;15.30;90.00;;;12.47;80.88;100258.50;6095816;23;19921;-72
2022/05/30 07:02:21;;;;;;;;;;;15.40;89.80;;;12.55;79.72;100265.69;6096814;23;19925;-72
2022/05/30 07:04:55;;;;;;;;;;;15.50;89.20;;;12.63;79.64;100261.94;6122053;23;20237;-72
2022/05/30 07:07:41;;;;;;;;;;;15.50;89.00;;;12.69;78.89;100261.94;6121797;23;20398;-72
2022/05/30 07:10:28;;;;;;;;;;;15.60;88.20;;;12.77;78.85;100262.81;6096720;23;19944;-73
2022/05/30 07:13:03;;;;;;;;;;;15.60;88.20;;;12.82;79.77;100269.34;6123131;23;19972;-72
2022/05/30 07:15:31;;;;;;;;;;;15.70;88.60;;;12.87;79.27;100269.56;6096929;23;19921;-72
2022/05/30 07:17:59;;;;;;;;;;;15.70;88.10;;;12.90;79.36;100271.88;6096051;23;19920;-72
2022/05/30 07:20:29;;;;;;;;;;;15.80;88.40;;;12.96;79.48;100269.38;6096978;23;19949;-72
2022/05/30 07:23:31;;;;;;;;;;;15.80;88.30;;;13.02;78.53;100276.75;6004501;23;19997;-73
2022/05/30 07:26:22;;;;;;;;;;;15.80;87.90;;;13.04;78.72;100275.50;6090002;23;19928;-72
2022/05/30 07:29:09;;;;;;;;;;;15.80;87.60;;;13.08;80.40;100271.31;6090701;23;19921;-72
2022/05/30 07:32:00;;;;;;;;;;;15.90;88.40;;;13.12;78.88;100271.75;6121080;23;19920;-72
2022/05/30 07:34:46;;;;;;;;;;;15.90;88.20;;;13.14;78.39;100277.00;6122791;23;19927;-72
2022/05/30 07:37:32;;;;;;;;;;;16.00;87.80;;;13.19;77.79;100278.03;6122849;23;19927;-72
2022/05/30 07:40:28;;;;;;;;;;;15.90;87.70;;;13.22;77.30;100276.78;6068053;23;19921;-72
2022/05/30 07:43:00;;;;;;;;;;;15.90;87.40;;;13.25;77.08;100271.75;6095104;23;19968;-73
2022/05/30 07:45:47;;;;;;;;;;;16.00;87.30;;;13.29;77.69;100274.91;6121769;23;20355;-72
2022/05/30 07:48:20;;;;;;;;;;;15.90;87.30;;;13.30;76.32;100276.63;6095648;23;20344;-73
2022/05/30 07:50:54;;;;;;;;;;;16.00;87.50;;;13.35;76.67;100276.00;6122787;23;19920;-73
2022/05/30 07:53:31;;;;;;;;;;;16.00;87.40;;;13.40;77.38;100273.47;6096816;23;19971;-73
2022/05/30 07:56:05;;;;;;;;;;;16.10;87.70;;;13.44;77.33;100263.78;6096246;23;20305;-73
2022/05/30 07:58:33;;;;;;;;;;;16.10;87.50;;;13.46;74.70;100261.69;6121623;23;19999;-73
2022/05/30 08:01:00;;;;;;;;;;;16.20;85.80;;;13.51;76.24;100264.63;6096391;23;19920;-73
2022/05/30 08:03:31;;;;;;;;;;;16.20;86.90;;;13.51;72.77;100270.13;6096474;23;19988;-73
2022/05/30 08:06:20;;;;;;;;;;;16.20;82.80;;;13.57;75.35;100268.44;6122488;23;19927;-73
2022/05/30 08:09:07;;;;;;;;;;;16.30;86.30;;;13.62;74.53;100269.47;6121919;23;20463;-72
2022/05/30 08:11:41;;;;;;;;;;;16.40;86.00;;;13.70;75.41;100268.44;6096398;23;19952;-73
2022/05/30 08:14:21;;;;;;;;;;;16.50;86.30;;;13.74;73.21;100268.84;6095555;23;19928;-73
2022/05/30 08:16:48;;;;;;;;;;;16.50;84.60;;;13.79;74.05;100266.31;6118371;23;19921;-73
2022/05/30 08:19:15;;;;;;;;;;;16.50;85.20;;;13.84;74.99;100256.44;6095160;23;19929;-73
2022/05/30 08:21:42;;;;;;;;;;;16.70;85.50;;;13.87;72.35;100274.31;6095912;23;19920;-73
2022/05/30 08:24:10;;;;;;;;;;;16.70;82.80;;;13.89;71.58;100272.19;6095915;23;19921;-73
2022/05/30 08:26:42;;;;;;;;;;;16.70;83.40;;;13.93;71.71;100278.09;6095111;23;19920;-73
2022/05/30 08:29:33;;;;;;;;;;;16.70;83.90;;;13.96;71.21;100273.03;6095078;23;20263;-73
2022/05/30 08:32:01;;;;;;;;;;;16.70;83.30;;;13.95;71.77;100263.13;6095705;23;19921;-73
2022/05/30 08:34:46;;;;;;;;;;;16.60;83.50;;;14.00;73.34;100266.06;6122415;23;19927;-73
2022/05/30 08:37:14;;;;;;;;;;;16.70;84.40;;;14.03;72.29;100264.81;6095748;23;20608;-74
2022/05/30 08:42:29;;;;;;;;;;;16.80;81.20;;;14.02;70.60;100265.88;6094853;23;19928;-73
2022/05/30 08:45:20;;;;;;;;;;;16.70;83.30;;;14.04;70.58;100267.31;6121499;23;19928;-72
2022/05/30 08:48:02;;;;;;;;;;;16.70;83.30;;;14.07;72.03;100275.13;6094727;23;19921;-73
2022/05/30 08:50:36;;;;;;;;;;;16.70;83.40;;;14.10;70.46;100283.97;6095580;23;19921;-73
2022/05/30 08:53:18;;;;;;;;;;;16.80;83.30;;;14.08;69.81;100284.16;6094401;23;20017;-72
2022/05/30 08:55:54;;;;;;;;;;;16.70;82.10;;;14.07;69.07;100283.34;6121825;23;19921;-73
2022/05/30 08:58:50;;;;;;;;;;;16.70;82.60;;;14.08;70.21;100287.72;6122751;23;19928;-73
2022/05/30 09:01:21;;;;;;;;;;;16.60;83.00;;;14.07;67.48;100282.50;6097509;23;19921;-73
2022/05/30 09:04:25;;;;;;;;;;;16.60;81.30;;;14.07;68.44;100283.34;6122488;23;19925;-73
2022/05/30 09:06:57;;;;;;;;;;;16.60;82.50;;;14.10;69.19;100283.97;6098354;23;20434;-73
2022/05/30 09:09:29;;;;;;;;;;;16.60;82.30;;;14.11;70.03;100280.16;6096956;23;19932;-73
2022/05/30 09:12:32;;;;;;;;;;;16.60;82.80;;;14.12;70.93;100277.19;6117817;23;19944;-73
2022/05/30 09:15:20;;;;;;;;;;;16.70;83.40;;;14.13;65.01;100284.38;6096267;23;20459;-74
2022/05/30 09:17:55;;;;;;;;;;;16.70;79.00;;;14.12;68.37;100279.09;6097243;23;19959;-74
2022/05/30 09:20:24;;;;;;;;;;;16.60;81.60;;;14.08;66.13;100290.47;6096285;23;19952;-73
2022/05/30 09:22:52;;;;;;;;;;;16.70;80.60;;;14.11;67.99;100285.63;6097222;23;20011;-73
2022/05/30 09:28:33;;;;;;;;;;;16.60;81.30;;;14.13;67.14;100278.06;6122006;23;19917;-73
2022/05/30 09:31:24;;;;;;;;;;;16.70;81.20;;;14.16;66.22;100280.34;6122871;23;19928;-73
2022/05/30 09:34:34;;;;;;;;;;;16.70;80.80;;;14.15;66.90;100281.44;6122099;23;19920;-73
2022/05/30 09:37:30;;;;;;;;;;;16.60;80.80;;;14.16;67.47;100280.34;6123003;23;19936;-73
2022/05/30 09:40:10;;;;;;;;;;;16.70;81.30;;;14.16;65.84;100283.09;6123061;23;19920;-74
2022/05/30 09:42:50;;;;;;;;;;;16.70;80.80;;;14.16;67.16;100278.44;6096697;23;19921;-73
2022/05/30 09:45:26;;;;;;;;;;;16.70;81.10;;;14.18;67.43;100280.97;6123737;23;19944;-73
2022/05/30 09:48:07;;;;;;;;;;;16.70;80.90;;;14.18;66.88;100286.47;6122724;23;20316;-74
2022/05/30 09:50:52;;;;;;;;;;;16.70;81.00;;;14.18;67.88;100283.72;6097947;23;19920;-74
2022/05/30 09:53:41;;;;;;;;;;;16.70;81.50;;;14.18;67.59;100279.06;6097787;23;20328;-74
2022/05/30 09:56:10;;;;;;;;;;;16.70;81.30;;;14.20;68.51;100281.59;6097480;23;19921;-73
2022/05/30 09:58:42;;;;;;;;;;;16.70;81.30;;;14.21;68.50;100283.31;6122538;23;19920;-73
2022/05/30 10:01:33;;;;;;;;;;;16.70;81.50;;;14.20;67.59;100281.59;6117532;23;19920;-73
2022/05/30 10:04:16;;;;;;;;;;;16.80;81.30;;;14.21;68.41;100280.56;6097457;23;19967;-73
2022/05/30 10:07:13;;;;;;;;;;;16.80;81.30;;;14.26;70.25;100287.09;6123748;23;19921;-73
2022/05/30 10:09:56;;;;;;;;;;;16.80;82.10;;;14.31;71.13;100280.94;6096044;23;19931;-74
2022/05/30 10:12:37;;;;;;;;;;;16.90;82.50;;;14.37;71.75;100280.06;6121575;23;19925;-73
2022/05/30 10:15:31;;;;;;;;;;;17.00;82.50;;;14.40;68.92;100282.41;6097399;23;19925;-73
2022/05/30 10:18:24;;;;;;;;;;;17.00;81.60;;;14.41;67.25;100275.88;6096032;23;20348;-73
2022/05/30 10:21:03;;;;;;;;;;;17.10;81.30;;;14.44;67.77;100283.66;6123284;23;19959;-72
2022/05/30 10:30:40;;;;;;;;;;;17.00;80.30;;;14.44;67.13;100291.84;6122504;23;20292;-73
2022/05/30 10:33:42;;;;;;;;;;;17.00;80.50;;;14.44;66.21;100297.34;6120055;23;19932;-73
2022/05/30 10:36:18;;;;;;;;;;;17.00;80.30;;;14.44;66.02;100297.34;6096249;23;19917;-73
2022/05/30 10:38:59;;;;;;;;;;;16.90;80.40;;;14.44;66.74;100293.75;6094561;23;20330;-73
2022/05/30 10:41:31;;;;;;;;;;;16.90;80.50;;;14.44;67.55;100291.03;6095350;23;20345;-73
2022/05/30 10:44:01;;;;;;;;;;;16.90;80.70;;;14.40;64.53;100296.09;6122207;23;20341;-73
2022/05/30 10:46:35;;;;;;;;;;;16.90;80.10;;;14.41;64.77;100288.72;6096958;23;19936;-73
2022/05/30 10:49:09;;;;;;;;;;;16.90;80.00;;;14.41;65.04;100286.84;6096231;23;20300;-73
2022/05/30 10:51:54;;;;;;;;;;;16.90;80.00;;;14.41;65.32;100289.56;6096602;23;20394;-73
2022/05/30 10:54:25;;;;;;;;;;;17.00;80.20;;;14.42;64.37;100295.88;6095926;23;19920;-74
2022/05/30 10:57:07;;;;;;;;;;;17.00;79.70;;;14.43;64.11;100290.19;6096018;23;19920;-73
2022/05/30 10:59:39;;;;;;;;;;;17.00;79.80;;;14.43;62.24;100292.94;6094571;23;19921;-73
2022/05/30 11:02:13;;;;;;;;;;;17.00;78.70;;;14.40;60.74;100284.31;6095945;23;19991;-75
2022/05/30 11:04:49;;;;;;;;;;;16.90;76.10;;;14.39;61.95;100288.09;6096735;23;19952;-74
2022/05/30 11:07:45;;;;;;;;;;;16.90;78.50;;;14.41;63.30;100284.09;6096697;23;19925;-74
2022/05/30 11:10:28;;;;;;;;;;;16.90;78.70;;;14.40;61.41;100289.78;6121096;23;19925;-74
2022/05/30 11:13:02;;;;;;;;;;;16.90;78.60;;;14.39;63.46;100286.22;6096367;23;20000;-74
2022/05/30 11:15:33;;;;;;;;;;;16.90;78.90;;;14.41;63.52;100291.44;6095698;23;20023;-74
2022/05/30 11:18:27;;;;;;;;;;;16.80;78.70;;;14.40;63.73;100298.81;6121705;23;19968;-74
2022/05/30 11:21:29;;;;;;;;;;;16.90;78.90;;;14.40;63.82;100300.72;6120431;23;20126;-74
2022/05/30 11:24:01;;;;;;;;;;;16.90;78.70;;;14.40;64.08;100301.56;6095781;23;19921;-73
2022/05/30 11:27:02;;;;;;;;;;;16.90;78.70;;;14.40;62.64;100290.63;6121875;23;19921;-74
2022/05/30 11:29:51;;;;;;;;;;;16.90;78.00;;;14.40;62.68;100303.47;6095037;23;19963;-73
2022/05/30 11:33:01;;;;;;;;;;;16.90;78.30;;;14.36;63.31;100294.84;6119651;23;19916;-74
2022/05/30 11:35:34;;;;;;;;;;;16.90;78.50;;;14.36;64.11;100303.06;6120980;23;19923;-74
2022/05/30 11:38:40;;;;;;;;;;;16.90;78.90;;;14.35;63.58;100304.09;6119994;23;19917;-74
2022/05/30 11:41:19;;;;;;;;;;;16.90;78.70;;;14.33;62.46;100308.94;6121288;23;20358;-73
2022/05/30 11:44:06;;;;;;;;;;;16.80;78.00;;;14.31;62.20;100308.31;6121848;23;20023;-73
2022/05/30 11:46:42;;;;;;;;;;;16.80;78.10;;;14.32;62.26;100311.88;6119090;23;19953;-74
2022/05/30 11:49:29;;;;;;;;;;;16.80;78.00;;;14.30;62.87;100317.59;6120633;23;19920;-73
2022/05/30 11:54:52;;;;;;;;;;;16.70;77.10;;;14.22;62.47;100304.13;6151684;23;19920;-75
2022/05/30 11:57:26;;;;;;;;;;;16.70;77.90;;;14.22;62.52;100304.13;6149853;23;19967;-75
2022/05/30 12:00:27;;;;;;;;;;;16.70;77.70;;;14.26;62.42;100311.72;6124380;23;19948;-74
2022/05/30 12:03:24;;;;;;;;;;;16.70;78.00;;;14.21;61.46;100306.03;6124398;23;20407;-74
2022/05/30 12:06:21;;;;;;;;;;;16.70;77.10;;;14.19;60.38;100299.94;6095273;23;19921;-74
2022/05/30 12:09:21;;;;;;;;;;;16.70;76.80;;;14.22;59.99;100302.25;6150643;23;20284;-74
2022/05/30 12:12:21;;;;;;;;;;;16.70;74.40;;;14.19;59.60;100293.63;6118923;23;20295;-74
2022/05/30 12:15:24;;;;;;;;;;;16.70;75.00;;;14.26;61.74;100300.75;6131941;23;20019;-74
2022/05/30 12:24:08;;;;;;;;;;;16.90;76.40;;;14.43;61.89;100305.75;6150727;23;19921;-74
2022/05/30 12:26:57;;;;;;;;;;;16.90;76.50;;;14.46;60.47;100299.88;6151525;23;19920;-74